Time;durP1;ratioP1;P1;durP2;ratioP2;P2;SDS_P1;SDS_P2;PMS_P1;PMS_P2;Temp;Humidity;BMP_temperature;BMP_pressure;BME280_temperature;BME280_humidity;BME280_pressure;Samples;Min_cycle;Max_cycle;Signal;HPM_P1;HPM_P2
2022/07/16 00:03:08;;;;;;;6.32;5.70;;;19.50;66.00;;;;;;5095537;28;20954;-69
2022/07/16 00:05:34;;;;;;;6.75;6.15;;;19.50;66.40;;;;;;5095207;28;20223;-68
2022/07/16 00:08:01;;;;;;;8.10;5.72;;;19.50;66.40;;;;;;5095473;28;20293;-69
2022/07/16 00:10:28;;;;;;;5.85;5.30;;;19.50;66.50;;;;;;5095960;28;20299;-68
2022/07/16 00:12:55;;;;;;;7.53;5.22;;;19.60;66.50;;;;;;5095582;28;20277;-69
2022/07/16 00:15:23;;;;;;;6.25;5.10;;;19.50;66.50;;;;;;5095384;28;20199;-68
2022/07/16 00:19:15;;;;;;;6.63;5.70;;;19.40;66.40;;;;;;5095442;28;20294;-69
2022/07/16 00:20:37;;;;;;;6.10;5.50;;;19.30;66.90;;;;;;5095127;28;20207;-68
2022/07/16 00:23:04;;;;;;;7.30;5.40;;;19.30;66.90;;;;;;5095096;28;20747;-69
2022/07/16 00:25:31;;;;;;;6.47;5.40;;;19.30;66.90;;;;;;5095056;28;20560;-69
2022/07/16 00:27:58;;;;;;;5.15;4.65;;;19.30;67.20;;;;;;5095327;28;20234;-68
2022/07/16 00:30:26;;;;;;;5.70;5.20;;;19.30;66.70;;;;;;5095167;28;20290;-69
2022/07/16 00:32:53;;;;;;;5.63;4.93;;;19.30;66.70;;;;;;5095223;28;20223;-68
2022/07/16 00:35:20;;;;;;;4.82;4.32;;;19.30;67.10;;;;;;5095036;28;20233;-68
2022/07/16 00:37:47;;;;;;;5.45;4.95;;;19.20;67.80;;;;;;5095146;28;20235;-68
2022/07/16 00:40:14;;;;;;;5.32;4.80;;;19.20;68.10;;;;;;5095063;28;20259;-68
2022/07/16 00:42:41;;;;;;;5.80;5.20;;;19.10;68.60;;;;;;5094861;28;20309;-68
2022/07/16 00:45:08;;;;;;;5.82;5.32;;;19.10;68.20;;;;;;5094751;28;20289;-69
2022/07/16 00:47:37;;;;;;;6.00;4.82;;;19.00;67.90;;;;;;5094932;28;20198;-69
2022/07/16 00:50:04;;;;;;;6.03;5.53;;;19.00;68.20;;;;;;5094886;28;20238;-68
2022/07/16 00:52:34;;;;;;;5.60;5.20;;;19.00;67.90;;;;;;5094445;28;20720;-69
2022/07/16 00:55:01;;;;;;;5.63;5.13;;;19.00;68.60;;;;;;5094758;28;20229;-68
2022/07/16 00:57:28;;;;;;;7.85;5.30;;;19.00;68.60;;;;;;5094878;28;20231;-68
2022/07/16 00:59:55;;;;;;;13.00;5.07;;;19.00;68.10;;;;;;5094448;28;20571;-68
2022/07/16 01:02:22;;;;;;;5.95;4.72;;;18.90;68.60;;;;;;5094307;28;20735;-69
2022/07/16 01:04:51;;;;;;;6.15;5.55;;;19.00;69.30;;;;;;5094472;28;20206;-68
2022/07/16 01:07:20;;;;;;;6.50;5.38;;;18.90;69.40;;;;;;5094051;28;20631;-69
2022/07/16 01:09:48;;;;;;;6.10;5.60;;;19.00;69.00;;;;;;5094420;28;20206;-68
2022/07/16 01:12:15;;;;;;;5.20;4.70;;;18.90;68.80;;;;;;5094353;28;20254;-68
2022/07/16 01:14:44;;;;;;;5.50;5.00;;;18.90;69.50;;;;;;5094269;28;20623;-68
2022/07/16 01:17:11;;;;;;;5.45;4.95;;;18.90;69.40;;;;;;5094363;28;20196;-69
2022/07/16 01:19:38;;;;;;;5.40;4.90;;;18.80;69.60;;;;;;5094386;28;20229;-69
2022/07/16 01:22:07;;;;;;;5.20;4.70;;;18.80;69.80;;;;;;5094219;28;20269;-68
2022/07/16 01:24:35;;;;;;;6.70;5.15;;;18.80;69.80;;;;;;5094177;28;20289;-70
2022/07/16 01:27:02;;;;;;;5.97;5.38;;;18.70;69.40;;;;;;5093929;28;20218;-68
2022/07/16 01:29:29;;;;;;;5.22;4.70;;;18.70;70.10;;;;;;5094010;28;20718;-69
2022/07/16 01:31:56;;;;;;;6.57;5.30;;;18.70;70.40;;;;;;5093984;28;20230;-69
2022/07/16 01:34:25;;;;;;;7.93;5.25;;;18.60;70.60;;;;;;5094086;28;20237;-68
2022/07/16 01:36:54;;;;;;;5.50;5.00;;;18.50;71.00;;;;;;5094033;28;20230;-69
2022/07/16 01:39:22;;;;;;;6.03;5.10;;;18.50;71.70;;;;;;5093918;28;20209;-69
2022/07/16 01:41:55;;;;;;;5.85;5.20;;;18.50;71.00;;;;;;5093944;28;20229;-68
2022/07/16 01:44:23;;;;;;;5.40;4.95;;;18.50;71.20;;;;;;5093590;28;20244;-69
2022/07/16 01:46:51;;;;;;;5.72;5.07;;;18.50;71.70;;;;;;5093870;28;20218;-69
2022/07/16 01:49:18;;;;;;;5.60;5.10;;;18.50;72.20;;;;;;5093877;28;20289;-69
2022/07/16 01:51:45;;;;;;;5.72;5.13;;;18.40;71.90;;;;;;5093740;28;20213;-68
2022/07/16 01:54:12;;;;;;;6.38;5.78;;;18.30;72.30;;;;;;5093307;28;20256;-69
2022/07/16 01:56:39;;;;;;;5.95;5.40;;;18.30;72.60;;;;;;5093720;28;20241;-69
2022/07/16 01:59:08;;;;;;;6.00;5.50;;;18.30;72.40;;;;;;5093789;28;20233;-68
2022/07/16 02:01:35;;;;;;;5.88;5.38;;;18.20;72.50;;;;;;5093486;28;20241;-68
2022/07/16 02:04:02;;;;;;;5.53;4.95;;;18.20;72.90;;;;;;5093677;28;20205;-69
2022/07/16 02:06:29;;;;;;;5.53;5.03;;;18.20;73.30;;;;;;5093511;28;20254;-68
2022/07/16 02:08:55;;;;;;;5.72;5.22;;;18.20;72.90;;;;;;5093633;28;20256;-68
2022/07/16 02:11:22;;;;;;;5.55;5.00;;;18.20;72.90;;;;;;5093606;28;20202;-68
2022/07/16 02:13:49;;;;;;;5.65;5.15;;;18.20;73.00;;;;;;5093421;28;20232;-69
2022/07/16 02:16:17;;;;;;;5.45;5.05;;;18.20;72.80;;;;;;5093591;28;20229;-68
2022/07/16 02:18:44;;;;;;;5.95;4.88;;;18.20;72.90;;;;;;5095974;28;20242;-69
2022/07/16 02:21:11;;;;;;;6.70;5.10;;;18.20;72.60;;;;;;5097706;28;20237;-68
2022/07/16 02:23:38;;;;;;;4.70;4.30;;;18.20;73.20;;;;;;5097710;28;20256;-68
2022/07/16 02:26:05;;;;;;;5.57;4.80;;;18.10;73.20;;;;;;5097502;28;20254;-69
2022/07/16 02:28:32;;;;;;;5.28;4.78;;;18.10;73.50;;;;;;5097681;28;20202;-68
2022/07/16 02:30:58;;;;;;;5.70;5.20;;;18.10;73.50;;;;;;5097667;28;20233;-68
2022/07/16 02:33:27;;;;;;;5.90;5.35;;;18.00;73.40;;;;;;5097425;28;20582;-69
2022/07/16 02:35:53;;;;;;;5.50;5.07;;;18.00;73.40;;;;;;5097379;28;20292;-68
2022/07/16 02:38:20;;;;;;;7.25;5.20;;;18.00;73.80;;;;;;5097455;28;20212;-69
2022/07/16 02:40:47;;;;;;;5.65;5.13;;;18.10;73.70;;;;;;5097223;28;20202;-68
2022/07/16 02:43:14;;;;;;;5.55;5.05;;;18.00;73.90;;;;;;5097063;28;20721;-68
2022/07/16 02:45:43;;;;;;;5.97;4.88;;;18.00;73.60;;;;;;5097053;28;20238;-68
2022/07/16 02:48:10;;;;;;;5.20;4.65;;;18.00;73.80;;;;;;5097146;28;20664;-68
2022/07/16 02:50:39;;;;;;;6.85;4.80;;;17.90;74.10;;;;;;5097229;28;20233;-68
2022/07/16 02:53:07;;;;;;;7.07;5.40;;;17.90;74.00;;;;;;5097006;28;20261;-68
2022/07/16 02:55:34;;;;;;;6.15;5.05;;;17.90;74.30;;;;;;5096917;28;20233;-68
2022/07/16 02:58:01;;;;;;;5.65;4.95;;;17.90;74.30;;;;;;5097480;28;20200;-68
2022/07/16 03:00:28;;;;;;;4.82;4.43;;;17.90;73.90;;;;;;5096728;28;20627;-68
2022/07/16 03:02:56;;;;;;;5.88;5.03;;;17.90;73.40;;;;;;5096981;28;20561;-68
2022/07/16 03:05:23;;;;;;;5.75;4.70;;;17.80;73.40;;;;;;5096563;28;20205;-68
2022/07/16 03:07:51;;;;;;;5.22;4.43;;;17.80;73.80;;;;;;5097130;28;20253;-68
2022/07/16 03:10:18;;;;;;;4.97;4.60;;;17.80;74.40;;;;;;5096744;28;20202;-69
2022/07/16 03:12:46;;;;;;;6.07;4.90;;;17.70;75.00;;;;;;5096569;28;20249;-68
2022/07/16 03:15:13;;;;;;;4.60;4.20;;;17.70;75.10;;;;;;5096314;28;20217;-69
2022/07/16 03:17:40;;;;;;;6.05;5.45;;;17.70;74.80;;;;;;5096770;28;20201;-69
2022/07/16 03:20:08;;;;;;;4.70;4.20;;;17.60;74.80;;;;;;5096694;28;20229;-68
2022/07/16 03:22:35;;;;;;;5.30;4.90;;;17.60;74.90;;;;;;5096414;28;20592;-68
2022/07/16 03:25:03;;;;;;;5.63;5.05;;;17.60;74.90;;;;;;5096633;28;20241;-68
2022/07/16 03:27:30;;;;;;;5.40;4.90;;;17.60;75.00;;;;;;5096626;28;20218;-68
2022/07/16 03:29:57;;;;;;;5.50;5.00;;;17.60;75.00;;;;;;5095438;28;20233;-68
2022/07/16 03:32:24;;;;;;;5.25;4.80;;;17.60;74.60;;;;;;5096652;28;20257;-69
2022/07/16 03:34:50;;;;;;;4.80;4.40;;;17.50;75.10;;;;;;5096312;28;20237;-68
2022/07/16 03:37:17;;;;;;;5.43;4.80;;;17.50;75.30;;;;;;5096579;28;20198;-68
2022/07/16 03:39:44;;;;;;;5.50;5.10;;;17.60;75.40;;;;;;5096457;28;20251;-69
2022/07/16 03:42:12;;;;;;;6.65;4.57;;;17.60;75.80;;;;;;5095933;28;20261;-68
2022/07/16 03:44:39;;;;;;;5.00;4.60;;;17.60;75.60;;;;;;5095750;28;20293;-69
2022/07/16 03:47:06;;;;;;;4.80;4.40;;;17.60;76.00;;;;;;5095818;28;20312;-68
2022/07/16 03:49:33;;;;;;;6.10;5.50;;;17.50;76.50;;;;;;5095951;28;20660;-68
2022/07/16 03:52:00;;;;;;;6.05;5.25;;;17.40;77.50;;;;;;5095955;28;20256;-68
2022/07/16 03:54:26;;;;;;;6.55;5.95;;;17.40;78.80;;;;;;5095494;28;20292;-68
2022/07/16 03:56:53;;;;;;;7.35;5.85;;;17.20;80.10;;;;;;5095658;28;20296;-68
2022/07/16 03:59:22;;;;;;;6.45;5.85;;;17.00;82.50;;;;;;5095708;28;20248;-68
2022/07/16 04:01:48;;;;;;;6.10;5.60;;;16.90;83.20;;;;;;5095778;28;20243;-68
2022/07/16 04:04:15;;;;;;;6.15;5.35;;;16.90;83.70;;;;;;5095434;28;20238;-69
2022/07/16 04:06:42;;;;;;;5.30;4.80;;;17.00;82.70;;;;;;5095601;28;20703;-68
2022/07/16 04:09:09;;;;;;;5.57;5.07;;;17.00;82.00;;;;;;5095788;28;20240;-70
2022/07/16 04:11:36;;;;;;;5.18;4.68;;;17.10;81.80;;;;;;5095419;28;20210;-69
2022/07/16 04:14:03;;;;;;;5.70;5.10;;;17.20;81.30;;;;;;5095329;28;20234;-68
2022/07/16 04:16:31;;;;;;;5.47;4.78;;;17.30;81.30;;;;;;5095593;28;20205;-68
2022/07/16 04:18:58;;;;;;;5.00;4.60;;;17.30;81.20;;;;;;5095434;28;20240;-68
2022/07/16 04:21:25;;;;;;;5.10;4.60;;;17.30;81.40;;;;;;5095464;28;20245;-68
2022/07/16 04:23:52;;;;;;;4.88;4.35;;;17.30;81.40;;;;;;5095241;28;20264;-68
2022/07/16 04:26:19;;;;;;;5.90;5.40;;;17.30;81.70;;;;;;5095323;28;20204;-68
2022/07/16 04:28:46;;;;;;;5.93;5.32;;;17.30;81.40;;;;;;5095167;28;20237;-68
2022/07/16 04:31:12;;;;;;;5.55;5.07;;;17.30;81.40;;;;;;5095144;28;20237;-68
2022/07/16 04:33:41;;;;;;;6.32;5.40;;;17.30;81.40;;;;;;5095272;28;20285;-68
2022/07/16 04:36:09;;;;;;;5.75;4.75;;;17.30;81.90;;;;;;5095137;28;20244;-68
2022/07/16 04:38:35;;;;;;;6.35;5.50;;;17.30;82.10;;;;;;5095127;28;20237;-67
2022/07/16 04:41:02;;;;;;;5.47;4.97;;;17.40;82.50;;;;;;5095080;28;20601;-68
2022/07/16 04:43:29;;;;;;;5.97;5.38;;;17.40;82.50;;;;;;5095552;28;20257;-68
2022/07/16 04:45:56;;;;;;;6.07;5.35;;;17.40;81.80;;;;;;5094709;28;20241;-68
2022/07/16 04:48:23;;;;;;;5.80;5.20;;;17.30;82.70;;;;;;5094766;28;20313;-68
2022/07/16 04:50:51;;;;;;;6.15;5.50;;;17.20;83.90;;;;;;5095008;28;20604;-68
2022/07/16 04:53:18;;;;;;;6.60;5.65;;;17.00;85.30;;;;;;5094454;28;20729;-68
2022/07/16 04:55:45;;;;;;;5.90;5.40;;;16.90;86.60;;;;;;5094736;28;20202;-68
2022/07/16 04:58:12;;;;;;;7.57;5.72;;;16.80;87.50;;;;;;5094775;28;20233;-68
2022/07/16 05:00:39;;;;;;;6.20;5.60;;;16.70;87.90;;;;;;5094738;28;20233;-68
2022/07/16 05:03:07;;;;;;;6.93;6.20;;;16.90;88.60;;;;;;5094628;28;20248;-68
2022/07/16 05:05:36;;;;;;;9.25;6.80;;;16.80;90.10;;;;;;5094170;28;20750;-68
2022/07/16 05:08:07;;;;;;;7.63;6.95;;;16.70;90.50;;;;;;5094552;28;20316;-68
2022/07/16 05:10:34;;;;;;;7.97;6.70;;;16.80;91.00;;;;;;5094611;28;20259;-68
2022/07/16 05:13:02;;;;;;;8.00;7.40;;;16.80;91.50;;;;;;5094533;28;20657;-68
2022/07/16 05:15:30;;;;;;;7.53;6.82;;;16.90;91.60;;;;;;5094201;28;20202;-68
2022/07/16 05:17:57;;;;;;;7.78;7.05;;;16.90;92.00;;;;;;5094335;28;20230;-68
2022/07/16 05:20:24;;;;;;;7.65;6.90;;;16.90;91.90;;;;;;5094349;28;20240;-68
2022/07/16 05:22:51;;;;;;;8.35;7.43;;;17.00;91.90;;;;;;5094312;28;20264;-68
2022/07/16 05:25:19;;;;;;;7.75;7.05;;;17.10;92.00;;;;;;5094062;28;20237;-68
2022/07/16 05:27:46;;;;;;;7.70;7.00;;;17.10;91.90;;;;;;5094163;28;20226;-68
2022/07/16 05:30:14;;;;;;;8.10;7.40;;;17.20;91.90;;;;;;5094218;28;20292;-68
2022/07/16 05:32:42;;;;;;;7.00;6.40;;;17.20;92.00;;;;;;5093952;28;20312;-68
2022/07/16 05:35:09;;;;;;;7.55;6.75;;;17.30;91.90;;;;;;5094001;28;20240;-68
2022/07/16 05:37:36;;;;;;;8.00;7.20;;;17.30;91.40;;;;;;5093866;28;20549;-68
2022/07/16 05:40:04;;;;;;;8.20;7.45;;;17.30;91.50;;;;;;5094047;28;20233;-68
2022/07/16 05:42:32;;;;;;;8.60;6.95;;;17.30;92.10;;;;;;5093923;28;20254;-68
2022/07/16 05:44:59;;;;;;;8.00;7.20;;;17.20;92.40;;;;;;5093820;28;20658;-69
2022/07/16 05:47:26;;;;;;;8.40;7.57;;;17.20;92.50;;;;;;5093779;28;20587;-68
2022/07/16 05:49:53;;;;;;;9.50;8.05;;;17.10;93.10;;;;;;5093922;28;20229;-68
2022/07/16 05:52:20;;;;;;;8.23;7.45;;;17.10;93.60;;;;;;5093056;28;20228;-68
2022/07/16 05:54:47;;;;;;;8.88;7.97;;;17.10;93.60;;;;;;5093397;28;20672;-68
2022/07/16 05:57:13;;;;;;;8.32;7.53;;;17.20;93.70;;;;;;5093860;28;20204;-67
2022/07/16 05:59:42;;;;;;;9.30;8.50;;;17.20;93.60;;;;;;5093694;28;20240;-68
2022/07/16 06:02:08;;;;;;;8.40;7.45;;;17.20;93.30;;;;;;5093448;28;20265;-68
2022/07/16 06:04:36;;;;;;;8.10;7.30;;;17.20;93.00;;;;;;5093537;28;20241;-68
2022/07/16 06:07:03;;;;;;;8.70;7.45;;;17.30;92.70;;;;;;5093452;28;20202;-67
2022/07/16 06:09:30;;;;;;;8.25;7.15;;;17.30;92.40;;;;;;5093523;28;20237;-68
2022/07/16 06:11:58;;;;;;;7.85;7.15;;;17.30;91.90;;;;;;5093526;28;20264;-67
2022/07/16 06:14:25;;;;;;;7.63;6.93;;;17.40;91.80;;;;;;5093427;28;20206;-68
2022/07/16 06:16:53;;;;;;;8.52;7.70;;;17.50;91.50;;;;;;5093688;28;20198;-68
2022/07/16 06:19:20;;;;;;;7.50;6.78;;;17.60;91.70;;;;;;5093646;28;20214;-68
2022/07/16 06:21:47;;;;;;;7.50;6.90;;;17.70;91.50;;;;;;5093469;28;20202;-68
2022/07/16 06:24:14;;;;;;;7.18;6.47;;;17.70;90.80;;;;;;5093080;28;20245;-68
2022/07/16 06:26:46;;;;;;;6.75;6.15;;;17.80;90.60;;;;;;5093073;28;20212;-68
2022/07/16 06:29:13;;;;;;;7.05;6.45;;;17.90;89.60;;;;;;5093226;28;20289;-68
2022/07/16 06:31:40;;;;;;;7.93;6.00;;;17.90;88.90;;;;;;5093434;28;20237;-67
2022/07/16 06:34:08;;;;;;;6.68;6.10;;;17.90;88.80;;;;;;5093347;28;20311;-68
2022/07/16 06:36:35;;;;;;;7.50;6.35;;;17.90;87.50;;;;;;5093348;28;20259;-68
2022/07/16 06:39:04;;;;;;;7.35;6.20;;;17.90;88.20;;;;;;5093423;28;20557;-68
2022/07/16 06:41:31;;;;;;;6.72;6.00;;;18.00;88.10;;;;;;5093339;28;20208;-68
2022/07/16 06:43:58;;;;;;;6.05;5.55;;;18.00;87.70;;;;;;5093053;28;20217;-67
2022/07/16 06:46:25;;;;;;;7.22;5.78;;;18.20;86.70;;;;;;5093380;28;20248;-68
2022/07/16 06:48:52;;;;;;;6.80;6.20;;;18.30;86.90;;;;;;5093140;28;20775;-68
2022/07/16 06:51:20;;;;;;;7.13;6.15;;;18.50;86.00;;;;;;5093215;28;20235;-68
2022/07/16 06:53:47;;;;;;;7.53;6.75;;;18.50;86.80;;;;;;5092598;28;20788;-68
2022/07/16 06:56:14;;;;;;;7.70;6.90;;;18.50;86.60;;;;;;5093096;28;20206;-68
2022/07/16 06:58:41;;;;;;;7.35;6.28;;;18.50;86.00;;;;;;5093254;28;20232;-68
2022/07/16 07:01:09;;;;;;;7.75;6.75;;;18.50;86.90;;;;;;5093186;28;20241;-68
2022/07/16 07:03:38;;;;;;;7.65;6.85;;;18.60;86.90;;;;;;5093173;28;20222;-68
2022/07/16 07:06:05;;;;;;;6.70;6.10;;;18.70;85.30;;;;;;5095604;28;20237;-67
2022/07/16 07:08:33;;;;;;;7.43;6.30;;;18.90;84.10;;;;;;5096844;28;20222;-68
2022/07/16 07:11:00;;;;;;;8.90;6.95;;;19.10;83.00;;;;;;5096889;28;20230;-68
2022/07/16 07:13:28;;;;;;;7.22;6.63;;;19.40;82.30;;;;;;5096872;28;20309;-68
2022/07/16 07:15:55;;;;;;;11.10;6.43;;;19.40;81.90;;;;;;5096612;28;20207;-68
2022/07/16 07:18:22;;;;;;;6.90;6.27;;;19.80;81.20;;;;;;5096738;28;20437;-68
2022/07/16 07:20:49;;;;;;;7.90;7.15;;;20.10;80.00;;;;;;5096605;28;20524;-68
2022/07/16 07:23:16;;;;;;;7.37;6.67;;;20.30;77.90;;;;;;5096531;28;20262;-68
2022/07/16 07:25:44;;;;;;;6.80;6.20;;;20.40;77.70;;;;;;5096241;28;20961;-68
2022/07/16 07:28:11;;;;;;;7.20;6.50;;;20.70;75.70;;;;;;5096302;28;20553;-68
2022/07/16 07:30:38;;;;;;;6.40;5.90;;;21.20;74.30;;;;;;5096252;28;20967;-68
2022/07/16 07:33:05;;;;;;;7.67;6.90;;;21.40;72.90;;;;;;5096059;28;20499;-68
2022/07/16 07:35:31;;;;;;;6.33;5.73;;;21.20;72.20;;;;;;5096271;28;20442;-68
2022/07/16 07:37:58;;;;;;;6.73;6.10;;;21.40;73.50;;;;;;5096368;28;20480;-68
2022/07/16 07:40:26;;;;;;;6.23;5.63;;;21.30;71.80;;;;;;5096320;28;20452;-68
2022/07/16 07:42:55;;;;;;;6.30;5.80;;;21.20;71.10;;;;;;5096325;28;20470;-68
2022/07/16 07:45:22;;;;;;;6.30;5.73;;;21.00;70.60;;;;;;5095963;28;20451;-68
2022/07/16 07:47:49;;;;;;;5.90;5.40;;;21.00;71.50;;;;;;5096037;28;21056;-69
2022/07/16 07:50:16;;;;;;;6.53;5.93;;;21.20;72.90;;;;;;5096071;28;20506;-68
2022/07/16 07:52:43;;;;;;;6.23;5.73;;;21.80;71.10;;;;;;5096287;28;20468;-68
2022/07/16 07:55:10;;;;;;;6.50;5.90;;;22.60;67.40;;;;;;5095909;28;20446;-68
2022/07/16 07:57:37;;;;;;;5.87;5.37;;;24.10;65.00;;;;;;5095855;28;20485;-68
2022/07/16 08:00:08;;;;;;;6.40;5.80;;;25.10;59.50;;;;;;5096007;28;20871;-68
2022/07/16 08:02:35;;;;;;;6.00;5.50;;;25.20;58.00;;;;;;5095576;28;20569;-69
2022/07/16 08:05:02;;;;;;;5.93;5.43;;;25.00;57.50;;;;;;5095493;28;20952;-68
2022/07/16 08:07:29;;;;;;;5.60;5.20;;;24.90;57.50;;;;;;5095714;28;20493;-68
2022/07/16 08:09:55;;;;;;;5.63;5.13;;;24.70;57.50;;;;;;5095792;28;20469;-68
2022/07/16 08:12:22;;;;;;;6.20;5.43;;;24.60;57.10;;;;;;5095642;28;20502;-68
2022/07/16 08:14:49;;;;;;;6.90;4.70;;;25.40;56.30;;;;;;5095230;28;20476;-68
2022/07/16 08:17:17;;;;;;;5.57;5.07;;;26.50;54.00;;;;;;5095153;28;20483;-68
2022/07/16 08:19:44;;;;;;;4.20;3.90;;;26.20;53.30;;;;;;5095367;28;20479;-68
2022/07/16 08:22:11;;;;;;;6.30;3.70;;;26.00;52.20;;;;;;5095272;28;20814;-68
2022/07/16 08:27:22;;;;;;;3.43;3.23;;;24.30;50.60;;;;;;5095495;28;20430;-68
2022/07/16 08:29:49;;;;;;;3.43;3.13;;;23.90;52.10;;;;;;5095236;28;20492;-68
2022/07/16 08:32:17;;;;;;;3.53;3.23;;;24.00;51.60;;;;;;5095010;28;20504;-68
2022/07/16 08:34:44;;;;;;;3.20;2.90;;;24.40;52.70;;;;;;5095131;28;20444;-68
2022/07/16 08:37:12;;;;;;;3.30;3.10;;;25.00;51.50;;;;;;5095252;28;20476;-68
2022/07/16 08:39:42;;;;;;;3.80;3.40;;;25.00;51.00;;;;;;5095167;28;20436;-68
2022/07/16 08:42:10;;;;;;;3.40;3.10;;;24.90;50.90;;;;;;5095002;28;20980;-69
2022/07/16 08:44:38;;;;;;;3.07;2.87;;;25.50;49.50;;;;;;5094981;28;20444;-68
2022/07/16 08:47:06;;;;;;;3.40;2.70;;;25.60;49.50;;;;;;5094852;28;20483;-68
2022/07/16 08:49:36;;;;;;;3.23;2.97;;;26.80;47.70;;;;;;5094984;28;20487;-68
2022/07/16 08:52:04;;;;;;;5.20;3.13;;;26.90;47.20;;;;;;5094845;28;20521;-68
2022/07/16 08:54:31;;;;;;;2.90;2.70;;;27.90;46.40;;;;;;5094498;28;20452;-68
2022/07/16 08:57:00;;;;;;;3.60;3.30;;;28.00;44.00;;;;;;5094782;28;20480;-69
2022/07/16 08:59:28;;;;;;;3.60;3.30;;;28.60;44.70;;;;;;5094827;28;20440;-69
2022/07/16 09:01:56;;;;;;;3.37;3.07;;;30.20;42.30;;;;;;5094481;28;20462;-69
2022/07/16 09:04:23;;;;;;;3.50;3.20;;;31.30;40.20;;;;;;5094394;28;20875;-69
2022/07/16 09:06:51;;;;;;;3.43;3.10;;;31.20;38.00;;;;;;5094582;28;20468;-69
2022/07/16 09:09:19;;;;;;;2.67;2.47;;;30.60;37.90;;;;;;5094476;28;20521;-68
2022/07/16 09:11:46;;;;;;;3.07;2.87;;;31.00;37.80;;;;;;5094292;28;20912;-68
2022/07/16 09:14:16;;;;;;;3.20;3.00;;;31.30;36.50;;;;;;5094526;28;20474;-69
2022/07/16 09:16:45;;;;;;;3.10;2.90;;;32.10;36.50;;;;;;5094703;28;20443;-68
2022/07/16 09:19:16;;;;;;;3.87;2.80;;;32.10;36.00;;;;;;5094439;28;20470;-68
2022/07/16 09:22:00;;;;;;;2.87;2.67;;;31.30;36.10;;;;;;5094308;28;20444;-68
2022/07/16 09:24:40;;;;;;;3.17;2.60;;;30.70;36.40;;;;;;5093958;28;20439;-68
2022/07/16 09:27:09;;;;;;;2.60;2.40;;;30.70;37.30;;;;;;5093786;28;20470;-69
2022/07/16 09:29:37;;;;;;;2.90;2.60;;;30.90;36.60;;;;;;5093873;28;20563;-68
2022/07/16 09:32:05;;;;;;;3.23;3.03;;;31.00;36.00;;;;;;5094131;28;20882;-69
2022/07/16 09:34:32;;;;;;;2.60;2.40;;;31.70;35.90;;;;;;5094049;28;20868;-69
2022/07/16 09:37:02;;;;;;;2.80;2.60;;;32.10;35.40;;;;;;5094147;28;20448;-68
2022/07/16 09:39:30;;;;;;;3.30;2.50;;;33.10;34.40;;;;;;5094152;28;20463;-69
2022/07/16 09:41:57;;;;;;;3.00;2.80;;;33.70;32.70;;;;;;5093845;28;20503;-68
2022/07/16 09:44:26;;;;;;;4.30;2.80;;;32.70;33.30;;;;;;5093933;28;20482;-69
2022/07/16 09:47:01;;;;;;;2.80;2.57;;;32.40;34.00;;;;;;5093972;28;20518;-68
2022/07/16 09:49:30;;;;;;;4.50;2.40;;;31.50;35.10;;;;;;5093626;28;20483;-68
2022/07/16 09:51:57;;;;;;;3.20;3.00;;;33.30;35.80;;;;;;5093625;28;20543;-69
2022/07/16 09:54:31;;;;;;;3.27;2.97;;;35.10;31.60;;;;;;5093449;28;20452;-69
2022/07/16 09:57:15;;;;;;;3.10;2.90;;;35.90;30.40;;;;;;5093932;28;20436;-69
2022/07/16 09:59:43;;;;;;;3.60;3.40;;;35.50;30.50;;;;;;5093604;28;20440;-68
2022/07/16 10:02:11;;;;;;;3.60;3.30;;;34.20;31.20;;;;;;5093749;28;20460;-68
2022/07/16 10:04:38;;;;;;;3.40;3.10;;;33.80;31.80;;;;;;5093398;28;20452;-68
2022/07/16 10:07:06;;;;;;;3.30;3.00;;;32.50;33.40;;;;;;5093686;28;21006;-68
2022/07/16 10:09:35;;;;;;;3.90;3.10;;;30.30;35.90;;;;;;5093640;28;20554;-68
2022/07/16 10:12:06;;;;;;;3.43;3.23;;;29.00;38.40;;;;;;5093709;28;20829;-69
2022/07/16 10:14:35;;;;;;;2.70;2.50;;;30.30;37.60;;;;;;5093389;28;20442;-68
2022/07/16 10:17:13;;;;;;;3.30;3.03;;;31.20;36.70;;;;;;5093729;28;20798;-69
2022/07/16 10:19:40;;;;;;;2.63;2.53;;;33.20;34.10;;;;;;5093685;28;20527;-69
2022/07/16 10:22:20;;;;;;;3.03;2.83;;;34.30;32.50;;;;;;5093534;28;20503;-69
2022/07/16 10:24:52;;;;;;;2.90;2.70;;;34.00;31.40;;;;;;5093253;28;20922;-69
2022/07/16 10:27:30;;;;;;;3.03;2.73;;;33.70;32.70;;;;;;5093598;28;20436;-69
2022/07/16 10:30:11;;;;;;;3.30;3.10;;;34.30;31.40;;;;;;5093517;28;20677;-69
2022/07/16 10:33:12;;;;;;;3.47;3.20;;;33.90;31.10;;;;;;5093202;28;20481;-69
2022/07/16 10:35:45;;;;;;;3.20;2.90;;;32.40;32.90;;;;;;5088631;28;20544;-68
2022/07/16 10:38:14;;;;;;;3.07;2.87;;;30.20;35.20;;;;;;5093532;28;20527;-68
2022/07/16 10:40:44;;;;;;;3.10;2.90;;;30.60;37.00;;;;;;5097516;28;20467;-69
2022/07/16 10:43:14;;;;;;;2.60;2.40;;;31.60;35.90;;;;;;5097234;28;21052;-69
2022/07/16 10:45:55;;;;;;;2.70;2.50;;;32.70;34.10;;;;;;5097262;28;20478;-69
2022/07/16 10:48:23;;;;;;;3.00;2.80;;;33.10;32.80;;;;;;5097236;28;20934;-69
2022/07/16 10:51:09;;;;;;;3.50;3.30;;;33.10;33.70;;;;;;5097224;28;20534;-69
2022/07/16 10:54:09;;;;;;;2.97;2.73;;;32.40;32.40;;;;;;5096920;28;20506;-68
2022/07/16 10:56:39;;;;;;;3.00;2.80;;;31.40;34.00;;;;;;5097307;28;20436;-69
2022/07/16 10:59:08;;;;;;;3.00;2.80;;;29.90;35.70;;;;;;5097078;28;20952;-68
2022/07/16 11:01:36;;;;;;;3.03;2.70;;;29.10;37.20;;;;;;5097011;28;20436;-68
2022/07/16 11:04:03;;;;;;;2.80;2.60;;;28.50;38.20;;;;;;5096897;28;20861;-69
2022/07/16 11:06:30;;;;;;;3.00;2.80;;;28.30;38.40;;;;;;5096987;28;20802;-68
2022/07/16 11:08:58;;;;;;;2.93;2.73;;;28.30;38.50;;;;;;5096897;28;20510;-69
2022/07/16 11:11:32;;;;;;;3.53;3.03;;;27.80;39.70;;;;;;5096903;28;20456;-68
2022/07/16 11:14:01;;;;;;;3.20;2.90;;;27.40;39.50;;;;;;5096432;28;20525;-68
2022/07/16 11:16:28;;;;;;;2.70;2.60;;;26.30;40.50;;;;;;5096762;28;20476;-68
2022/07/16 11:18:55;;;;;;;2.37;2.23;;;26.20;42.10;;;;;;5096848;28;20483;-68
2022/07/16 11:21:22;;;;;;;4.10;2.60;;;26.30;42.70;;;;;;5096692;28;20519;-68
2022/07/16 11:23:49;;;;;;;2.90;2.70;;;26.60;42.40;;;;;;5096183;28;20503;-68
2022/07/16 11:26:17;;;;;;;2.90;2.70;;;26.80;40.80;;;;;;5096660;28;20811;-68
2022/07/16 11:28:56;;;;;;;2.63;2.43;;;26.90;40.20;;;;;;5096934;28;20827;-68
2022/07/16 11:31:30;;;;;;;2.47;2.37;;;27.30;40.70;;;;;;5096583;28;20474;-68
2022/07/16 11:34:00;;;;;;;2.87;2.67;;;27.20;39.70;;;;;;5096068;28;20495;-69
2022/07/16 11:36:28;;;;;;;2.40;2.30;;;27.10;40.40;;;;;;5096491;28;20802;-68
2022/07/16 11:38:57;;;;;;;4.07;3.47;;;26.80;40.10;;;;;;5096417;28;20440;-68
2022/07/16 11:41:24;;;;;;;2.80;2.60;;;27.10;41.90;;;;;;5096236;28;20441;-68
2022/07/16 11:43:51;;;;;;;2.50;2.40;;;27.20;41.30;;;;;;5096158;28;20495;-69
2022/07/16 11:46:23;;;;;;;2.53;2.37;;;27.20;40.60;;;;;;5096079;28;20450;-68
2022/07/16 11:48:52;;;;;;;3.43;2.50;;;27.50;40.10;;;;;;5096129;28;20440;-69
2022/07/16 11:51:19;;;;;;;2.40;2.20;;;27.40;39.70;;;;;;5095402;28;20448;-69
2022/07/16 11:53:50;;;;;;;2.60;2.40;;;27.20;39.50;;;;;;5095528;28;20467;-70
2022/07/16 11:56:32;;;;;;;2.33;2.23;;;26.80;39.50;;;;;;5095788;28;20930;-68
2022/07/16 11:58:59;;;;;;;3.23;2.70;;;26.40;40.30;;;;;;5096018;28;20448;-68
2022/07/16 12:01:26;;;;;;;3.53;2.27;;;26.50;41.30;;;;;;5095990;28;20440;-68
2022/07/16 12:03:55;;;;;;;2.60;2.40;;;26.60;40.70;;;;;;5095755;28;20506;-68
2022/07/16 12:06:22;;;;;;;2.27;2.13;;;26.60;40.30;;;;;;5095767;28;20440;-68
2022/07/16 12:08:52;;;;;;;2.47;2.27;;;26.60;40.50;;;;;;5095478;28;20848;-68
2022/07/16 12:11:19;;;;;;;2.37;2.20;;;26.60;40.70;;;;;;5095790;28;20436;-68
2022/07/16 12:13:53;;;;;;;3.00;2.33;;;26.60;40.60;;;;;;5095617;28;20496;-69
2022/07/16 12:16:21;;;;;;;2.63;2.43;;;26.60;40.60;;;;;;5095748;28;20444;-69
2022/07/16 12:19:01;;;;;;;2.43;2.23;;;26.80;40.60;;;;;;5095595;28;20448;-69
2022/07/16 12:21:29;;;;;;;2.93;2.73;;;27.10;41.10;;;;;;5095646;28;20436;-68
2022/07/16 12:23:57;;;;;;;2.47;2.30;;;27.10;40.60;;;;;;5095372;28;20522;-68
2022/07/16 12:26:32;;;;;;;2.80;2.43;;;27.30;40.90;;;;;;5095458;28;20472;-68
2022/07/16 12:29:00;;;;;;;2.63;2.43;;;27.30;41.20;;;;;;5095351;28;20480;-68
2022/07/16 12:31:29;;;;;;;3.00;2.73;;;27.40;40.80;;;;;;5095325;28;20476;-68
2022/07/16 12:33:57;;;;;;;2.90;2.70;;;27.40;39.90;;;;;;5095211;28;20503;-68
2022/07/16 12:36:33;;;;;;;2.70;2.50;;;27.30;40.10;;;;;;5095318;28;20475;-68
2022/07/16 12:39:02;;;;;;;2.90;2.70;;;27.30;41.50;;;;;;5095081;28;20491;-68
2022/07/16 12:41:31;;;;;;;2.37;2.27;;;27.10;41.50;;;;;;5095158;28;20525;-68
2022/07/16 12:44:00;;;;;;;2.80;2.60;;;27.00;42.00;;;;;;5094631;28;20475;-68
2022/07/16 12:46:30;;;;;;;2.27;1.90;;;27.20;41.80;;;;;;5095112;28;20444;-68
2022/07/16 12:48:58;;;;;;;2.03;1.93;;;27.50;40.80;;;;;;5094975;28;20495;-68
2022/07/16 12:51:30;;;;;;;2.70;2.50;;;27.70;41.00;;;;;;5094952;28;20468;-68
2022/07/16 12:54:00;;;;;;;3.13;2.60;;;27.90;41.10;;;;;;5094483;28;20932;-69
2022/07/16 12:59:14;;;;;;;2.20;2.10;;;27.70;41.00;;;;;;5094933;28;20419;-68
2022/07/16 13:01:41;;;;;;;2.40;2.20;;;27.70;41.10;;;;;;5094124;28;20444;-69